Time;durP1;ratioP1;P1;durP2;ratioP2;P2;SDS_P1;SDS_P2;PMS_P1;PMS_P2;Temp;Humidity;BMP_temperature;BMP_pressure;BME280_temperature;BME280_humidity;BME280_pressure;Samples;Min_cycle;Max_cycle;Signal;HPM_P1;HPM_P2
2024/02/10 00:00:16;;;;;;;2.72;1.10;;;;;;;-3.35;100.00;99943.19;5113215;28;20099;-69
2024/02/10 00:02:43;;;;;;;2.75;1.45;;;;;;;-3.37;100.00;99930.19;5113813;28;20163;-69
2024/02/10 00:05:09;;;;;;;1.70;1.00;;;;;;;-3.37;100.00;99940.72;5097240;28;20402;-69
2024/02/10 00:07:34;;;;;;;1.15;0.73;;;;;;;-3.40;100.00;99925.19;5116260;28;20019;-69
2024/02/10 00:10:00;;;;;;;1.92;1.10;;;;;;;-3.37;100.00;99934.63;5116886;28;20119;-69
2024/02/10 00:12:27;;;;;;;2.63;1.20;;;;;;;-3.44;100.00;99918.53;5117090;28;20027;-69
2024/02/10 00:14:56;;;;;;;2.25;1.00;;;;;;;-3.42;100.00;99918.38;5099983;28;20034;-69
2024/02/10 00:17:25;;;;;;;3.20;1.17;;;;;;;-3.59;100.00;99893.53;5117064;28;20027;-69
2024/02/10 00:19:51;;;;;;;1.33;0.90;;;;;;;-3.41;100.00;99927.94;5116244;28;20038;-69
2024/02/10 00:22:17;;;;;;;2.13;1.35;;;;;;;-3.45;100.00;99919.47;5118317;28;20024;-69
2024/02/10 00:24:43;;;;;;;2.28;1.40;;;;;;;-3.45;100.00;99932.63;5099570;28;20083;-69
2024/02/10 00:27:10;;;;;;;3.90;1.63;;;;;;;-3.42;100.00;99926.28;5117754;28;20026;-68
2024/02/10 00:29:37;;;;;;;4.38;1.77;;;;;;;-3.43;100.00;99909.66;5116135;28;20024;-69
2024/02/10 00:32:09;;;;;;;2.58;1.10;;;;;;;-3.43;100.00;99922.81;5116141;28;20030;-69
2024/02/10 00:34:39;;;;;;;1.17;0.80;;;;;;;-3.47;100.00;99921.41;5118592;28;20023;-69
2024/02/10 00:37:08;;;;;;;2.53;0.98;;;;;;;-3.44;100.00;99907.19;5117319;28;20059;-70
2024/02/10 00:39:34;;;;;;;1.77;1.00;;;;;;;-3.45;100.00;99908.13;5117393;28;20406;-69
2024/02/10 00:41:59;;;;;;;2.05;0.82;;;;;;;-3.45;100.00;99916.84;5117439;28;20064;-68
2024/02/10 00:44:28;;;;;;;2.85;1.10;;;;;;;-3.70;100.00;99872.59;5115390;28;20490;-69
2024/02/10 00:46:57;;;;;;;2.38;1.20;;;;;;;-3.42;100.00;99932.38;5112036;28;20079;-69
2024/02/10 00:49:24;;;;;;;1.70;0.80;;;;;;;-3.46;100.00;99902.03;5114577;28;20053;-69
2024/02/10 00:51:52;;;;;;;3.30;0.80;;;;;;;-3.43;100.00;99911.47;5082933;28;20023;-69
2024/02/10 00:54:27;;;;;;;1.50;1.10;;;;;;;-3.41;100.00;99918.28;5116986;28;20506;-69
2024/02/10 00:56:53;;;;;;;1.55;1.10;;;;;;;-3.40;100.00;99930.44;5116785;28;20035;-68
2024/02/10 00:59:21;;;;;;;5.60;1.02;;;;;;;-3.39;100.00;99918.94;5117113;28;20102;-68
2024/02/10 01:01:49;;;;;;;2.90;0.90;;;;;;;-3.41;100.00;99918.28;5116520;28;20432;-69
2024/02/10 01:04:15;;;;;;;2.70;1.00;;;;;;;-3.42;100.00;99915.75;5098710;28;20051;-69
2024/02/10 01:06:40;;;;;;;2.88;1.20;;;;;;;-3.45;100.00;99937.88;5115501;28;20030;-69
2024/02/10 01:09:07;;;;;;;1.00;0.73;;;;;;;-3.46;100.00;99919.63;5119138;28;20067;-69
2024/02/10 01:11:33;;;;;;;2.58;1.15;;;;;;;-3.61;100.00;99898.94;5115844;28;20023;-69
2024/02/10 01:13:59;;;;;;;1.60;0.93;;;;;;;-3.49;100.00;99909.34;5097510;28;20036;-71
2024/02/10 01:16:25;;;;;;;1.77;1.13;;;;;;;-3.47;100.00;99907.44;5117641;28;20103;-69
2024/02/10 01:18:51;;;;;;;1.67;0.70;;;;;;;-3.48;100.00;99913.66;5100521;28;20051;-69
2024/02/10 01:21:17;;;;;;;3.25;1.40;;;;;;;-3.59;100.00;99920.66;5117634;28;20027;-69
2024/02/10 01:23:46;;;;;;;3.35;1.20;;;;;;;-3.60;100.00;99919.00;5120664;28;20031;-69
2024/02/10 01:26:12;;;;;;;2.83;1.10;;;;;;;-3.62;100.00;99904.31;5121433;28;20020;-69
2024/02/10 01:28:44;;;;;;;3.45;0.75;;;;;;;-3.55;100.00;99910.69;5118292;28;20035;-68
2024/02/10 01:31:11;;;;;;;2.53;1.13;;;;;;;-3.57;100.00;99926.63;5115507;28;20019;-69
2024/02/10 01:33:36;;;;;;;2.92;1.25;;;;;;;-3.57;100.00;99928.44;5117863;28;20113;-68
2024/02/10 01:36:03;;;;;;;2.22;1.30;;;;;;;-3.55;100.00;99935.19;5102399;28;20516;-68
2024/02/10 01:38:30;;;;;;;4.03;1.17;;;;;;;-3.68;100.00;99921.41;5119527;28;20040;-68
2024/02/10 01:40:55;;;;;;;3.13;1.27;;;;;;;-3.61;100.00;99942.78;5120196;28;20035;-68
2024/02/10 01:43:21;;;;;;;2.38;1.05;;;;;;;-3.61;100.00;99929.63;5119727;28;20088;-68
2024/02/10 01:45:50;;;;;;;2.97;1.33;;;;;;;-3.63;100.00;99935.03;5120062;28;20435;-71
2024/02/10 01:48:19;;;;;;;1.73;1.08;;;;;;;-3.65;100.00;99931.69;5120270;28;20023;-68
2024/02/10 01:50:47;;;;;;;4.45;1.63;;;;;;;-3.63;100.00;99934.19;5120778;28;20016;-68
2024/02/10 01:53:12;;;;;;;5.30;1.27;;;;;;;-3.74;100.00;99921.09;5121231;28;20030;-68
2024/02/10 01:55:39;;;;;;;2.60;0.90;;;;;;;-3.69;100.00;99929.44;5116467;28;20386;-68
2024/02/10 01:58:06;;;;;;;1.83;1.02;;;;;;;-3.68;100.00;99915.34;5119844;28;20083;-68
2024/02/10 02:00:32;;;;;;;1.52;0.90;;;;;;;-3.68;100.00;99931.94;5103204;28;20050;-68
2024/02/10 02:03:01;;;;;;;2.38;1.25;;;;;;;-3.69;100.00;99927.66;5121004;28;20019;-69
2024/02/10 02:05:28;;;;;;;1.75;1.15;;;;;;;-3.80;100.00;99918.03;5121125;28;20042;-68
2024/02/10 02:07:57;;;;;;;2.30;1.58;;;;;;;-3.65;100.00;99936.13;5122440;28;20082;-68
2024/02/10 02:10:22;;;;;;;1.25;0.77;;;;;;;-3.69;100.00;99930.28;5124114;27;20039;-67
2024/02/10 02:12:50;;;;;;;1.75;1.10;;;;;;;-3.78;100.00;99917.91;5128380;28;20027;-65
2024/02/10 02:15:20;;;;;;;2.15;1.27;;;;;;;-3.67;100.00;99935.44;5128580;28;20378;-66
2024/02/10 02:17:47;;;;;;;2.25;0.82;;;;;;;-3.68;100.00;99931.09;5130341;28;20020;-66
2024/02/10 02:20:13;;;;;;;3.63;1.25;;;;;;;-3.76;100.00;99928.31;5110696;28;20039;-68
2024/02/10 02:22:49;;;;;;;3.42;1.33;;;;;;;-3.68;100.00;99934.56;5125231;28;20489;-67
2024/02/10 02:25:18;;;;;;;3.00;1.50;;;;;;;-3.71;100.00;99926.09;5124175;28;20054;-68
2024/02/10 02:27:43;;;;;;;2.88;1.30;;;;;;;-3.70;100.00;99927.78;5125383;28;20041;-68
2024/02/10 02:30:09;;;;;;;3.53;1.02;;;;;;;-3.71;100.00;99929.56;5123540;28;20059;-67
2024/02/10 02:32:35;;;;;;;2.22;1.05;;;;;;;-3.81;100.00;99913.75;5119163;28;20016;-66
2024/02/10 02:35:09;;;;;;;2.72;1.10;;;;;;;-3.70;100.00;99925.16;5120657;27;20041;-68
2024/02/10 02:37:42;;;;;;;4.60;1.30;;;;;;;-3.74;100.00;99910.59;5117777;28;20071;-67
2024/02/10 02:40:09;;;;;;;2.25;1.30;;;;;;;-3.71;100.00;99926.09;5118428;28;20032;-68
2024/02/10 02:42:35;;;;;;;2.95;1.60;;;;;;;-3.74;100.00;99915.84;5117334;28;20111;-68
2024/02/10 02:45:06;;;;;;;4.20;1.77;;;;;;;-3.72;100.00;99913.94;5118716;28;20051;-68
2024/02/10 02:47:32;;;;;;;2.40;1.50;;;;;;;-3.77;100.00;99906.44;5118588;28;20051;-69
2024/02/10 02:50:01;;;;;;;2.42;1.33;;;;;;;-3.73;100.00;99913.09;5119229;28;20038;-68
2024/02/10 02:52:30;;;;;;;2.92;1.52;;;;;;;-3.70;100.00;99919.91;5119427;28;20028;-70
2024/02/10 02:54:59;;;;;;;3.22;1.38;;;;;;;-3.71;100.00;99926.94;5117362;28;20433;-70
2024/02/10 02:57:25;;;;;;;2.78;1.30;;;;;;;-3.70;100.00;99920.75;5100171;28;20031;-67
2024/02/10 02:59:52;;;;;;;2.65;1.52;;;;;;;-3.74;100.00;99914.06;5100022;28;20089;-67
2024/02/10 03:02:18;;;;;;;2.50;1.17;;;;;;;-3.86;100.00;99894.91;5117667;28;20028;-66
2024/02/10 03:04:43;;;;;;;3.55;1.88;;;;;;;-3.69;100.00;99893.47;5117190;28;20512;-67
2024/02/10 03:07:10;;;;;;;2.30;1.35;;;;;;;-3.71;100.00;99912.97;5119180;28;20148;-67
2024/02/10 03:09:36;;;;;;;4.35;1.60;;;;;;;-3.72;100.00;99912.13;5099718;28;20126;-68
2024/02/10 03:12:02;;;;;;;2.78;1.60;;;;;;;-3.73;100.00;99905.22;5118426;28;20422;-69
2024/02/10 03:14:28;;;;;;;3.13;1.63;;;;;;;-3.93;100.00;99869.28;5118029;27;20114;-68
2024/02/10 03:16:54;;;;;;;2.33;1.25;;;;;;;-3.74;100.00;99895.69;5116280;28;20023;-68
2024/02/10 03:19:19;;;;;;;3.17;1.10;;;;;;;-3.76;100.00;99902.84;5116755;28;20030;-68
2024/02/10 03:21:45;;;;;;;4.88;1.50;;;;;;;-3.74;100.00;99900.06;5097823;28;20023;-68
2024/02/10 03:24:10;;;;;;;2.42;1.35;;;;;;;-3.84;100.00;99895.63;5097987;28;20024;-68
2024/02/10 03:26:37;;;;;;;4.50;1.60;;;;;;;-3.73;100.00;99901.75;5118135;28;20046;-68
2024/02/10 03:29:04;;;;;;;3.17;1.42;;;;;;;-4.03;100.00;99866.59;5117995;28;20035;-68
2024/02/10 03:31:31;;;;;;;1.75;1.08;;;;;;;-3.76;100.00;99891.50;5117565;28;20026;-68
2024/02/10 03:33:57;;;;;;;3.22;1.42;;;;;;;-3.90;100.00;99871.66;5116814;28;20035;-68
2024/02/10 03:36:24;;;;;;;2.40;1.50;;;;;;;-3.74;100.00;99895.69;5116934;28;20027;-68
2024/02/10 03:38:53;;;;;;;3.22;1.70;;;;;;;-3.71;100.00;99899.81;5116035;28;20058;-68
2024/02/10 03:41:19;;;;;;;3.15;2.03;;;;;;;-3.72;100.00;99895.53;5113825;28;20020;-69
2024/02/10 03:43:45;;;;;;;2.33;1.42;;;;;;;-3.75;100.00;99891.34;5116667;28;20115;-68
2024/02/10 03:46:13;;;;;;;3.83;1.73;;;;;;;-3.71;100.00;99890.13;5115098;28;20059;-68
2024/02/10 03:48:39;;;;;;;3.38;1.70;;;;;;;-3.71;100.00;99899.81;5116200;28;20107;-69
2024/02/10 03:51:05;;;;;;;3.28;1.70;;;;;;;-3.74;100.00;99887.78;5116724;28;20083;-68
2024/02/10 03:53:32;;;;;;;3.25;1.55;;;;;;;-3.72;100.00;99882.38;5116528;28;20028;-68
2024/02/10 03:55:58;;;;;;;2.83;1.73;;;;;;;-3.91;100.00;99857.66;5116374;28;20038;-68
2024/02/10 03:58:25;;;;;;;2.55;1.33;;;;;;;-3.66;100.00;99889.75;5099483;28;20023;-68
2024/02/10 04:00:50;;;;;;;2.40;1.50;;;;;;;-3.69;100.00;99898.72;5099044;28;20394;-68
2024/02/10 04:03:19;;;;;;;2.83;1.50;;;;;;;-3.70;100.00;99889.19;5116016;28;20028;-69
2024/02/10 04:05:46;;;;;;;3.50;1.42;;;;;;;-3.75;100.00;99872.97;5115950;28;20032;-68
2024/02/10 04:08:17;;;;;;;4.03;1.77;;;;;;;-3.69;100.00;99890.03;5115539;28;20303;-68
2024/02/10 04:10:42;;;;;;;2.30;1.35;;;;;;;-3.71;100.00;99899.81;5116985;28;20224;-68
2024/02/10 04:13:08;;;;;;;2.80;1.40;;;;;;;-3.82;100.00;99867.41;5115492;28;20035;-68
2024/02/10 04:15:34;;;;;;;2.83;1.52;;;;;;;-3.70;100.00;99893.63;5116387;28;20031;-68
2024/02/10 04:18:01;;;;;;;2.25;1.17;;;;;;;-3.70;100.00;99893.63;5116256;28;20053;-68
2024/02/10 04:20:27;;;;;;;3.28;1.23;;;;;;;-3.66;100.00;99892.38;5115608;28;20020;-68
2024/02/10 04:22:52;;;;;;;2.33;1.50;;;;;;;-3.64;100.00;99891.31;5116766;28;20030;-68
2024/02/10 04:25:19;;;;;;;1.98;1.35;;;;;;;-3.69;100.00;99882.13;5117256;28;20038;-68
2024/02/10 04:27:45;;;;;;;2.20;1.33;;;;;;;-3.66;100.00;99882.69;5099225;28;20035;-68
2024/02/10 04:30:10;;;;;;;4.85;1.50;;;;;;;-3.71;100.00;99876.16;5117231;28;20035;-68
2024/02/10 04:32:48;;;;;;;2.50;1.20;;;;;;;-3.66;100.00;99868.72;5117177;28;20023;-68
2024/02/10 04:35:14;;;;;;;2.58;1.30;;;;;;;-3.65;100.00;99884.34;5117244;28;20171;-68
2024/02/10 04:37:48;;;;;;;6.15;1.50;;;;;;;-3.70;100.00;99854.19;5117686;28;20038;-68
2024/02/10 04:40:15;;;;;;;;;;;;;;;-3.64;100.00;99877.31;5116929;28;20436;-68
2024/02/10 04:42:40;;;;;;;3.28;1.48;;;;;;;-3.66;100.00;99876.63;5116774;28;19941;-68
2024/02/10 04:45:06;;;;;;;5.22;1.13;;;;;;;-3.62;100.00;99875.38;5081594;28;20031;-68
2024/02/10 04:47:34;;;;;;;2.90;1.17;;;;;;;-3.86;100.00;99838.88;5117817;28;20114;-68
2024/02/10 04:50:01;;;;;;;2.88;1.50;;;;;;;-3.61;100.00;99870.00;5118765;28;20031;-67
2024/02/10 04:52:26;;;;;;;2.83;1.63;;;;;;;-3.78;100.00;99841.69;5119531;28;20390;-69
2024/02/10 04:54:53;;;;;;;1.63;1.15;;;;;;;-3.64;100.00;99877.31;5101911;28;20027;-68
2024/02/10 04:57:28;;;;;;;3.17;1.65;;;;;;;-3.75;100.00;99864.25;5117525;28;20032;-68
2024/02/10 04:59:53;;;;;;;;;;;;;;;-3.64;100.00;99877.31;5117576;28;20049;-68
2024/02/10 05:02:18;;;;;;;2.50;1.38;;;;;;;-3.66;100.00;99872.19;5117872;28;19915;-67
2024/02/10 05:04:44;;;;;;;2.50;1.50;;;;;;;-3.78;100.00;99823.28;5119426;28;20035;-68
2024/02/10 05:07:15;;;;;;;3.90;1.65;;;;;;;-3.64;100.00;99882.56;5102474;28;20039;-68
2024/02/10 05:09:41;;;;;;;3.38;1.30;;;;;;;-3.64;100.00;99893.94;5120053;28;20035;-68
2024/02/10 05:12:06;;;;;;;2.88;1.63;;;;;;;-3.64;100.00;99890.44;5102631;28;20611;-68
2024/02/10 05:14:32;;;;;;;3.35;1.80;;;;;;;-3.63;100.00;99876.34;5118599;28;20057;-68
2024/02/10 05:16:58;;;;;;;2.67;1.50;;;;;;;-3.68;100.00;99854.88;5119422;28;20028;-68
2024/02/10 05:19:25;;;;;;;2.13;1.20;;;;;;;-3.64;100.00;99879.94;5119331;28;20100;-69
2024/02/10 05:21:51;;;;;;;2.17;1.52;;;;;;;-3.58;100.00;99882.88;5120577;28;20039;-70
2024/02/10 05:24:16;;;;;;;4.68;1.60;;;;;;;-3.62;100.00;99880.63;5119350;28;20028;-70
2024/02/10 05:26:42;;;;;;;4.05;1.80;;;;;;;-3.66;100.00;99881.88;5119307;28;20061;-68
2024/02/10 05:29:10;;;;;;;2.20;1.50;;;;;;;-3.63;100.00;99884.25;5120875;28;20019;-68
2024/02/10 05:31:40;;;;;;;2.50;1.40;;;;;;;-3.62;100.00;99888.53;5103062;28;20394;-68
2024/02/10 05:34:08;;;;;;;2.33;1.27;;;;;;;-3.61;100.00;99880.53;5120258;28;20019;-68
2024/02/10 05:36:37;;;;;;;5.32;1.55;;;;;;;-3.58;100.00;99893.38;5119779;28;20027;-67
2024/02/10 05:39:05;;;;;;;2.95;1.48;;;;;;;-3.57;100.00;99888.97;5117474;28;20058;-68
2024/02/10 05:41:30;;;;;;;3.85;1.58;;;;;;;-3.59;100.00;99886.47;5119157;28;20035;-68
2024/02/10 05:43:55;;;;;;;3.60;1.65;;;;;;;-3.58;100.00;99897.81;5120538;27;20024;-68
2024/02/10 05:46:21;;;;;;;3.53;1.50;;;;;;;-3.58;100.00;99896.00;5120241;28;20440;-70
2024/02/10 05:48:47;;;;;;;3.70;1.40;;;;;;;-3.60;100.00;99895.34;5101766;28;20035;-68
2024/02/10 05:51:12;;;;;;;3.05;1.40;;;;;;;-3.58;100.00;99901.28;5118869;28;20237;-68
2024/02/10 05:53:38;;;;;;;2.83;1.48;;;;;;;-3.59;100.00;99889.09;5100557;28;20126;-69
2024/02/10 05:56:05;;;;;;;3.38;1.60;;;;;;;-3.61;100.00;99892.81;5115588;28;20027;-67
2024/02/10 05:58:31;;;;;;;3.50;1.80;;;;;;;-3.60;100.00;99826.16;5116719;28;20041;-68
2024/02/10 06:00:58;;;;;;;2.83;1.40;;;;;;;-3.59;100.00;99912.75;5118022;28;20028;-67
2024/02/10 06:03:26;;;;;;;3.30;1.60;;;;;;;-3.62;100.00;99910.38;5119085;28;20056;-68
2024/02/10 06:05:52;;;;;;;3.22;1.55;;;;;;;-3.63;100.00;99900.84;5117628;28;20027;-68
2024/02/10 06:08:17;;;;;;;4.82;1.70;;;;;;;-3.62;100.00;99906.94;5116341;28;20036;-68
2024/02/10 06:10:42;;;;;;;4.15;1.83;;;;;;;-3.60;100.00;99913.72;5100814;28;20494;-68
2024/02/10 06:13:09;;;;;;;3.10;1.42;;;;;;;-3.64;100.00;99914.09;5120364;28;20031;-68
2024/02/10 06:15:34;;;;;;;3.13;1.70;;;;;;;-3.62;100.00;99922.72;5116186;28;20032;-68
2024/02/10 06:18:03;;;;;;;3.47;2.17;;;;;;;-3.63;100.00;99918.44;5116455;28;20039;-68
2024/02/10 06:20:29;;;;;;;3.30;1.80;;;;;;;-3.69;100.00;99921.56;5118629;28;20047;-68
2024/02/10 06:22:57;;;;;;;3.25;1.92;;;;;;;-3.73;100.00;99914.91;5101336;28;20030;-69
2024/02/10 06:25:24;;;;;;;5.03;2.00;;;;;;;-3.73;100.00;99921.00;5118447;28;20038;-68
2024/02/10 06:27:52;;;;;;;3.88;1.90;;;;;;;-3.81;100.00;99910.28;5119136;28;20035;-68
2024/02/10 06:30:20;;;;;;;3.88;1.92;;;;;;;-3.73;100.00;99925.41;5117934;28;20023;-68
2024/02/10 06:32:45;;;;;;;4.30;2.00;;;;;;;-3.84;100.00;99919.28;5118251;28;20028;-68
2024/02/10 06:35:12;;;;;;;2.88;1.88;;;;;;;-4.08;100.00;99902.91;5117368;28;20030;-69
2024/02/10 06:37:39;;;;;;;3.00;1.75;;;;;;;-3.88;100.00;99935.41;5117503;28;20048;-68
2024/02/10 06:40:07;;;;;;;3.58;2.13;;;;;;;-3.86;100.00;99944.84;5116412;28;20527;-68
2024/02/10 06:42:35;;;;;;;3.17;2.20;;;;;;;-3.90;100.00;99930.28;5117350;28;20030;-68
2024/02/10 06:45:08;;;;;;;5.20;1.92;;;;;;;-3.94;100.00;99930.66;5119156;28;20019;-68
2024/02/10 06:47:35;;;;;;;5.43;1.95;;;;;;;-3.89;100.00;99942.47;5118853;28;20112;-69
2024/02/10 06:50:01;;;;;;;4.03;2.17;;;;;;;-3.96;100.00;99943.94;5119106;28;20065;-68
2024/02/10 06:52:27;;;;;;;4.30;2.55;;;;;;;-3.94;100.00;99936.78;5117695;28;20031;-68
2024/02/10 06:54:53;;;;;;;4.32;2.47;;;;;;;-3.95;100.00;99950.03;5118230;28;20028;-68
2024/02/10 06:57:18;;;;;;;6.30;2.35;;;;;;;-4.22;100.00;99906.69;5117786;28;20031;-68
2024/02/10 06:59:45;;;;;;;4.65;2.65;;;;;;;-3.96;100.00;99948.38;5100533;28;20068;-68
2024/02/10 07:02:14;;;;;;;4.63;2.78;;;;;;;-4.20;100.00;99917.06;5119228;28;20027;-68
2024/02/10 07:04:40;;;;;;;3.80;2.10;;;;;;;-4.01;100.00;99935.59;5118503;28;20025;-68
2024/02/10 07:07:05;;;;;;;3.70;2.58;;;;;;;-4.07;100.00;99944.84;5118553;28;20102;-68
2024/02/10 07:09:35;;;;;;;3.85;1.90;;;;;;;-4.15;100.00;99943.78;5101005;28;20027;-68
2024/02/10 07:12:00;;;;;;;5.03;2.60;;;;;;;-4.17;100.00;99964.94;5118304;28;20024;-68
2024/02/10 07:14:26;;;;;;;5.63;2.72;;;;;;;-4.16;100.00;99965.78;5117492;28;20262;-68
2024/02/10 07:16:51;;;;;;;6.15;2.95;;;;;;;-4.21;100.00;99947.75;5119286;28;20416;-68
2024/02/10 07:19:17;;;;;;;3.42;2.00;;;;;;;-4.20;100.00;99948.59;5116735;28;20032;-68
2024/02/10 07:21:45;;;;;;;5.13;2.58;;;;;;;-4.19;100.00;99964.22;5117327;28;20081;-68
2024/02/10 07:24:12;;;;;;;4.75;2.13;;;;;;;-4.34;100.00;99928.69;5101073;28;20510;-68
2024/02/10 07:26:38;;;;;;;2.92;1.92;;;;;;;-4.20;100.00;99954.69;5114936;28;20076;-67
2024/02/10 07:29:05;;;;;;;4.57;2.60;;;;;;;-4.15;100.00;99957.75;5115802;28;20039;-67
2024/02/10 07:31:30;;;;;;;4.47;2.35;;;;;;;-4.25;100.00;99949.78;5117536;28;20110;-68
2024/02/10 07:34:01;;;;;;;4.80;2.50;;;;;;;-4.20;100.00;99956.47;5119169;28;20558;-69
2024/02/10 07:36:34;;;;;;;4.35;2.05;;;;;;;-4.16;100.00;99952.63;5101654;28;20031;-68
2024/02/10 07:39:07;;;;;;;3.67;2.13;;;;;;;-4.18;100.00;99968.50;5120628;28;20052;-68
2024/02/10 07:41:39;;;;;;;2.72;2.10;;;;;;;-4.18;100.00;99962.41;5121119;28;20027;-69
2024/02/10 07:44:12;;;;;;;3.65;2.42;;;;;;;-4.10;100.00;99970.53;5121128;28;20031;-68
2024/02/10 07:46:38;;;;;;;3.55;2.40;;;;;;;-4.08;100.00;99958.91;5119923;28;20023;-68
2024/02/10 07:49:07;;;;;;;3.00;1.77;;;;;;;-4.16;100.00;99942.13;5120573;28;20049;-68
2024/02/10 07:51:33;;;;;;;4.13;2.47;;;;;;;-4.11;100.00;99950.44;5121113;28;20024;-68
2024/02/10 07:53:59;;;;;;;3.70;2.40;;;;;;;-4.05;100.00;99976.22;5123368;27;20024;-66
2024/02/10 07:56:31;;;;;;;4.07;2.22;;;;;;;-4.06;100.00;99980.66;5127679;28;20016;-65
2024/02/10 07:59:02;;;;;;;3.30;1.80;;;;;;;-4.17;100.00;99969.34;5108682;28;20028;-65
2024/02/10 08:01:28;;;;;;;4.55;2.25;;;;;;;-4.09;100.00;99959.88;5127083;28;20020;-66
2024/02/10 08:03:54;;;;;;;3.50;2.00;;;;;;;-4.03;100.00;99971.69;5126472;28;20098;-66
2024/02/10 08:06:26;;;;;;;3.53;2.15;;;;;;;-4.05;100.00;99969.16;5124517;28;20035;-68
2024/02/10 08:08:57;;;;;;;4.22;2.35;;;;;;;-4.03;100.00;99974.31;5121470;28;20027;-68
2024/02/10 08:11:27;;;;;;;3.97;2.42;;;;;;;-3.99;100.00;99973.09;5120954;28;20024;-68
2024/02/10 08:13:53;;;;;;;3.53;2.17;;;;;;;-3.90;100.00;99979.41;5118429;28;20050;-68
2024/02/10 08:16:27;;;;;;;3.70;1.80;;;;;;;-3.96;100.00;99982.53;5119838;28;20505;-67
2024/02/10 08:18:54;;;;;;;3.38;1.80;;;;;;;-3.98;100.00;99968.66;5115933;28;20042;-68
2024/02/10 08:21:22;;;;;;;4.10;2.22;;;;;;;-4.00;100.00;99962.72;5101929;28;20036;-67
2024/02/10 08:23:52;;;;;;;5.18;2.17;;;;;;;-3.91;100.00;99975.91;5120506;28;20028;-68
2024/02/10 08:26:18;;;;;;;4.63;2.40;;;;;;;-3.88;100.00;99978.28;5121659;28;20034;-67
2024/02/10 08:28:48;;;;;;;3.65;2.17;;;;;;;-3.92;100.00;99979.50;5101797;28;20027;-68
2024/02/10 08:31:15;;;;;;;4.55;2.15;;;;;;;-3.91;100.00;99980.34;5116242;28;20102;-68
2024/02/10 08:33:44;;;;;;;5.88;2.30;;;;;;;-3.92;100.00;99974.25;5115861;28;20027;-68
2024/02/10 08:36:13;;;;;;;3.47;1.90;;;;;;;-3.74;100.00;99985.06;5117486;28;20035;-68
2024/02/10 08:38:40;;;;;;;5.15;2.80;;;;;;;-4.02;100.00;99945.28;5116451;28;20048;-68
2024/02/10 08:41:05;;;;;;;4.93;2.65;;;;;;;-3.82;100.00;99976.97;5118288;28;20144;-68
2024/02/10 08:43:31;;;;;;;4.35;2.50;;;;;;;-3.79;100.00;99960.94;5117114;28;20139;-68
2024/02/10 08:45:57;;;;;;;4.95;2.35;;;;;;;-3.89;100.00;99960.84;5118224;28;20027;-68
2024/02/10 08:48:23;;;;;;;2.95;1.70;;;;;;;-3.82;100.00;99959.38;5117854;28;20027;-68
2024/02/10 08:50:48;;;;;;;3.45;2.00;;;;;;;-3.79;100.00;99976.72;5083173;28;20130;-68
2024/02/10 08:53:16;;;;;;;4.38;2.33;;;;;;;-3.70;100.00;99964.59;5115771;28;20063;-68
2024/02/10 08:55:42;;;;;;;4.22;2.17;;;;;;;-3.57;100.00;99978.38;5116311;28;20053;-68
2024/02/10 08:58:08;;;;;;;4.85;3.10;;;;;;;-3.62;100.00;99972.66;5117073;28;20040;-68
2024/02/10 09:00:34;;;;;;;3.28;2.35;;;;;;;-3.55;100.00;99973.81;5115805;28;20032;-67
2024/02/10 09:02:59;;;;;;;5.47;3.30;;;;;;;-3.53;100.00;99971.91;5116394;28;20024;-68
2024/02/10 09:05:26;;;;;;;10.23;7.25;;;;;;;-3.49;100.00;99968.03;5117077;28;20079;-67
2024/02/10 09:07:52;;;;;;;4.97;3.90;;;;;;;-3.45;100.00;99972.06;5100070;28;20579;-68
2024/02/10 09:10:18;;;;;;;5.15;2.50;;;;;;;-3.45;100.00;99976.50;5117194;28;20031;-67
2024/02/10 09:12:44;;;;;;;3.92;2.45;;;;;;;-3.39;100.00;99971.56;5116899;28;20246;-68
2024/02/10 09:15:10;;;;;;;9.48;4.35;;;;;;;-3.32;100.00;99977.97;5115867;28;20107;-69
2024/02/10 09:17:36;;;;;;;3.90;2.13;;;;;;;-3.42;100.00;99978.88;5115649;28;20031;-68
2024/02/10 09:20:01;;;;;;;3.20;2.33;;;;;;;-3.45;100.00;99976.50;5117096;28;20031;-68
2024/02/10 09:22:27;;;;;;;3.42;2.30;;;;;;;-3.37;100.00;99982.78;5112532;28;20115;-67
2024/02/10 09:24:54;;;;;;;3.10;2.17;;;;;;;-3.18;100.00;99991.72;5115184;28;20046;-68
2024/02/10 09:27:21;;;;;;;3.80;2.10;;;;;;;-3.15;100.00;99980.94;5116964;28;20394;-68
2024/02/10 09:29:46;;;;;;;5.18;4.13;;;;;;;-3.20;100.00;99989.25;5117346;28;20102;-67
2024/02/10 09:32:14;;;;;;;7.30;2.22;;;;;;;-3.29;100.00;99999.72;5099550;28;20031;-68
2024/02/10 09:34:40;;;;;;;3.97;2.08;;;;;;;-3.26;100.00;99983.69;5116207;28;20038;-70
2024/02/10 09:37:06;;;;;;;12.93;2.58;;;;;;;-3.17;100.00;100006.59;5120273;28;20032;-68
2024/02/10 09:39:37;;;;;;;3.33;1.90;;;;;;;-3.19;100.00;99993.53;5121456;28;20019;-68
2024/02/10 09:42:08;;;;;;;3.40;2.33;;;;;;;-3.05;100.00;99992.34;5122820;28;20034;-69
2024/02/10 09:44:34;;;;;;;4.05;2.20;;;;;;;-3.16;100.00;99997.72;5119809;27;20027;-69
2024/02/10 09:47:01;;;;;;;5.47;2.20;;;;;;;-3.32;100.00;99971.88;5118897;28;20036;-68
2024/02/10 09:49:28;;;;;;;4.10;1.98;;;;;;;-3.42;100.00;99956.03;5118838;28;20023;-68
2024/02/10 09:51:53;;;;;;;2.63;1.90;;;;;;;-3.01;100.00;100000.81;5120752;27;20019;-66
2024/02/10 09:54:19;;;;;;;3.05;2.00;;;;;;;-3.24;100.00;99963.34;5118486;28;20500;-68
2024/02/10 09:56:45;;;;;;;4.15;2.22;;;;;;;-2.95;100.00;100009.03;5119439;28;20098;-68
2024/02/10 09:59:18;;;;;;;5.38;2.10;;;;;;;-2.87;100.00;100001.31;5116335;28;20038;-68
2024/02/10 10:01:45;;;;;;;4.30;2.53;;;;;;;-2.72;100.00;100004.41;5115414;28;20050;-68
2024/02/10 10:04:11;;;;;;;3.90;2.08;;;;;;;-2.70;100.00;100005.13;5118595;28;20027;-68
2024/02/10 10:06:43;;;;;;;3.50;1.92;;;;;;;-2.63;100.00;100013.31;5121236;28;20024;-67
2024/02/10 10:09:08;;;;;;;2.92;1.92;;;;;;;-2.73;100.00;99978.22;5103408;28;20402;-68
2024/02/10 10:11:39;;;;;;;4.22;1.73;;;;;;;-2.70;100.00;100004.28;5102178;28;20026;-68
2024/02/10 10:14:07;;;;;;;4.00;2.47;;;;;;;-2.53;100.00;100002.81;5120459;28;20051;-67
2024/02/10 10:16:32;;;;;;;4.85;1.83;;;;;;;-2.68;100.00;100008.47;5102269;28;20023;-68
2024/02/10 10:18:57;;;;;;;2.63;1.70;;;;;;;-2.68;100.00;100008.47;5119807;28;20031;-68
2024/02/10 10:21:24;;;;;;;2.70;1.77;;;;;;;-2.69;100.00;99998.88;5119171;28;20134;-68
2024/02/10 10:23:50;;;;;;;2.78;1.70;;;;;;;-2.66;100.00;99982.81;5120528;28;20028;-68
2024/02/10 10:26:15;;;;;;;5.57;2.15;;;;;;;-2.58;100.00;99979.53;5118856;28;20031;-68
2024/02/10 10:28:41;;;;;;;3.47;1.92;;;;;;;-2.56;100.00;99997.81;5120221;28;20497;-68
2024/02/10 10:31:07;;;;;;;3.17;1.73;;;;;;;-2.64;100.00;99953.72;5120172;28;20027;-68
2024/02/10 10:33:33;;;;;;;5.90;2.30;;;;;;;-2.63;100.00;100002.78;5119999;27;20035;-68
2024/02/10 10:36:02;;;;;;;3.30;2.08;;;;;;;-2.57;100.00;99999.59;5119939;28;20036;-68
2024/02/10 10:38:29;;;;;;;3.33;1.67;;;;;;;-2.50;100.00;100005.16;5118154;28;20054;-69
2024/02/10 10:40:56;;;;;;;10.27;5.15;;;;;;;-2.58;100.00;99995.31;5117703;28;20379;-68
2024/02/10 10:43:24;;;;;;;3.75;2.15;;;;;;;-2.49;100.00;99997.13;5118164;28;20027;-67
2024/02/10 10:45:51;;;;;;;3.70;1.92;;;;;;;-2.58;100.00;99979.53;5119571;28;20023;-66
2024/02/10 10:48:16;;;;;;;3.60;2.60;;;;;;;-2.69;100.00;99956.75;5117952;28;20026;-68
2024/02/10 10:50:42;;;;;;;3.40;2.30;;;;;;;-2.46;100.00;99990.75;5118183;28;20028;-69
2024/02/10 10:53:11;;;;;;;3.45;2.03;;;;;;;-2.39;100.00;99989.25;5120803;27;20470;-69
2024/02/10 10:55:44;;;;;;;3.72;2.05;;;;;;;-2.41;100.00;99988.56;5119038;28;20129;-68
2024/02/10 10:58:19;;;;;;;3.60;2.15;;;;;;;-2.53;100.00;99977.28;5118851;28;20092;-68
2024/02/10 11:00:46;;;;;;;3.42;1.85;;;;;;;-2.48;100.00;99996.16;5118983;28;20024;-68
2024/02/10 11:03:16;;;;;;;3.63;2.05;;;;;;;-2.43;100.00;99970.25;5117049;28;20027;-69
2024/02/10 11:05:43;;;;;;;3.42;2.10;;;;;;;-2.39;100.00;99984.81;5117774;28;20023;-69
2024/02/10 11:08:13;;;;;;;2.40;1.70;;;;;;;-2.44;100.00;99984.38;5101035;28;20019;-68
2024/02/10 11:10:48;;;;;;;2.35;1.67;;;;;;;-2.30;100.00;99971.78;5119086;28;20027;-69
2024/02/10 11:13:22;;;;;;;3.83;1.90;;;;;;;-2.34;100.00;99958.06;5117283;28;20032;-71
2024/02/10 11:16:04;;;;;;;3.03;1.90;;;;;;;-2.26;100.00;99971.38;5117683;28;20028;-69
2024/02/10 11:18:37;;;;;;;4.03;2.22;;;;;;;-2.26;100.00;99973.19;5118185;28;20091;-68
2024/02/10 11:21:18;;;;;;;4.35;2.10;;;;;;;-2.25;100.00;99977.47;5117376;28;20580;-68
2024/02/10 11:23:56;;;;;;;3.13;1.88;;;;;;;-2.23;100.00;99962.38;5118397;28;20409;-67